»·PEaware :: DAL2460 KPDX-KSMF

DAL2460 :: KPDX-KSMF

FLIGHT INFORMATION

Flight Status: Arrived
Operator:
Delta Air Lines
More flights by this operator :: More flights under this callsign
Pilot: Max W. (2591)
Aircraft: AIRBUS A319
(A319)
More flights by this aircraft type
Origin: KPDX Portland Intl
United States
Destination: KSMF Sacramento Intl
United States
More flights between these airports :: More routes between these airports
Route: HRMNS5 HRMNS LMT TUDOR2
File this flight plan on PilotEdge
Remarks:
Altitude:
(Current/Filed)
35,000ft
Speed:
(Current/Filed)
450kts
Departed: 24-Oct-19 05:00 PM
Arrived: 24-Oct-19 06:04 PM
Distance/Time
Traveled:
416nm/1:04
Distance/Time
To Go:
Arrived

Flight Plot

Page will automatically refresh every two minutes.

Flight plan parsing failed; only flown route is shown


Map Options




Map Legend


Flown Route
Filed Route
Departure Airport
Arrival Airport
Navaid (VOR, NDB)
Fix

Horizontal Profiles

Position Reports

Time Latitude Longitude Heading Altitude Ground
Speed
24-Oct-19 16:01 45.590989 -122.593530 208 38ft 0kts
24-Oct-19 16:02 45.590989 -122.593530 208 38ft 0kts
24-Oct-19 16:03 45.590989 -122.593530 208 38ft 0kts
24-Oct-19 16:04 45.590989 -122.593530 208 38ft 0kts
24-Oct-19 16:05 45.590989 -122.593530 208 38ft 0kts
24-Oct-19 16:06 45.590989 -122.593530 208 38ft 0kts
24-Oct-19 16:07 45.590989 -122.593530 208 38ft 0kts
24-Oct-19 16:08 45.590989 -122.593530 208 38ft 0kts
24-Oct-19 16:09 45.590989 -122.593530 208 38ft 0kts
24-Oct-19 16:10 45.590989 -122.593530 208 38ft 0kts
24-Oct-19 16:11 45.590989 -122.593530 208 38ft 0kts
24-Oct-19 16:12 45.590989 -122.593530 208 38ft 0kts
24-Oct-19 16:13 45.590989 -122.593530 208 38ft 0kts
24-Oct-19 16:14 45.590989 -122.593530 208 38ft 0kts
24-Oct-19 16:15 45.590989 -122.593530 208 38ft 0kts
24-Oct-19 16:16 45.590989 -122.593530 208 38ft 0kts
24-Oct-19 16:17 45.590989 -122.593530 208 38ft 0kts
24-Oct-19 16:18 45.590989 -122.593530 208 38ft 0kts
24-Oct-19 16:19 45.590989 -122.593530 208 38ft 0kts
24-Oct-19 16:20 45.590989 -122.593530 208 38ft 0kts
24-Oct-19 16:21 45.590989 -122.593530 208 38ft 0kts
24-Oct-19 16:22 45.590989 -122.593530 208 38ft 0kts
24-Oct-19 16:23 45.590989 -122.593530 208 38ft 0kts
24-Oct-19 16:24 45.590989 -122.593530 208 38ft 0kts
24-Oct-19 16:25 45.590989 -122.593530 208 38ft 0kts
24-Oct-19 16:26 45.590989 -122.593530 208 38ft 0kts
24-Oct-19 16:27 45.590989 -122.593530 208 38ft 0kts
24-Oct-19 16:28 45.590989 -122.593530 208 38ft 0kts
24-Oct-19 16:30 45.590989 -122.593530 208 38ft 0kts
24-Oct-19 16:31 45.590989 -122.593530 208 38ft 0kts
24-Oct-19 16:32 45.590989 -122.593530 208 38ft 0kts
24-Oct-19 16:33 45.590989 -122.593530 208 38ft 0kts
24-Oct-19 16:34 45.590989 -122.593530 208 38ft 0kts
24-Oct-19 16:35 45.590989 -122.593530 208 38ft 0kts
24-Oct-19 16:36 45.590989 -122.593530 208 38ft 0kts
24-Oct-19 16:37 45.590989 -122.593530 208 38ft 0kts
24-Oct-19 16:38 45.590989 -122.593530 208 38ft 0kts
24-Oct-19 16:39 45.590989 -122.593530 208 38ft 0kts
24-Oct-19 16:40 45.590989 -122.593530 208 38ft 0kts
24-Oct-19 16:41 45.591456 -122.593069 240 38ft 2kts
24-Oct-19 16:42 45.591444 -122.592378 300 38ft 1kts
24-Oct-19 16:43 45.591439 -122.592367 299 38ft 0kts
24-Oct-19 16:44 45.591439 -122.592367 299 38ft 0kts
24-Oct-19 16:45 45.591439 -122.592367 299 38ft 0kts
24-Oct-19 16:46 45.591439 -122.592367 299 38ft 0kts
24-Oct-19 16:47 45.591439 -122.592367 299 38ft 0kts
24-Oct-19 16:48 45.591439 -122.592367 299 38ft 0kts
24-Oct-19 16:48 45.591439 -122.592367 299 38ft 0kts
24-Oct-19 16:50 45.591439 -122.592367 299 38ft 0kts
24-Oct-19 16:51 45.591439 -122.592367 299 38ft 0kts
24-Oct-19 16:52 45.591439 -122.592367 299 38ft 0kts
24-Oct-19 16:52 45.591439 -122.592367 299 38ft 0kts
24-Oct-19 16:53 45.591439 -122.592367 299 38ft 0kts
24-Oct-19 16:55 45.591565 -122.592679 299 38ft 0kts
24-Oct-19 16:55 45.592738 -122.595651 298 38ft 20kts
24-Oct-19 16:56 45.595131 -122.601590 324 38ft 9kts
24-Oct-19 16:57 45.595666 -122.601117 84 38ft 0kts
24-Oct-19 16:58 45.596312 -122.599876 56 38ft 10kts
24-Oct-19 16:59 45.585830 -122.572536 119 193ft 177kts
24-Oct-19 17:00 45.572541 -122.506965 111 2734ft 191kts
24-Oct-19 17:01 45.515148 -122.487975 175 4698ft 260kts
24-Oct-19 17:02 45.440483 -122.476247 174 8045ft 280kts
24-Oct-19 17:03 45.360723 -122.462558 175 10750ft 311kts
24-Oct-19 17:04 45.266762 -122.446296 174 12703ft 362kts
24-Oct-19 17:05 45.165396 -122.428601 175 15467ft 377kts
24-Oct-19 17:06 45.059505 -122.410271 175 17857ft 392kts
24-Oct-19 17:07 44.949753 -122.391311 175 20130ft 402kts
24-Oct-19 17:08 44.840602 -122.364806 173 22047ft 415kts
24-Oct-19 17:09 44.727209 -122.336361 174 23773ft 426kts
24-Oct-19 17:10 44.608908 -122.306949 174 25333ft 437kts
24-Oct-19 17:11 44.487932 -122.277284 175 26731ft 447kts
24-Oct-19 17:12 44.364417 -122.247165 175 27976ft 457kts
24-Oct-19 17:13 44.237708 -122.216399 175 29092ft 466kts
24-Oct-19 17:14 44.109257 -122.185342 175 30120ft 472kts
24-Oct-19 17:15 43.980144 -122.154220 176 31363ft 471kts
24-Oct-19 17:16 43.858649 -122.125116 176 32366ft 470kts
24-Oct-19 17:17 43.729716 -122.094360 176 33370ft 469kts
24-Oct-19 17:18 43.601724 -122.063937 176 34242ft 468kts
24-Oct-19 17:19 43.473586 -122.033624 176 35062ft 466kts
24-Oct-19 17:20 43.346113 -122.003590 176 35338ft 465kts
24-Oct-19 17:21 43.218670 -121.973698 176 35340ft 465kts
24-Oct-19 17:22 43.090831 -121.943831 176 35359ft 465kts
24-Oct-19 17:23 42.962579 -121.914166 175 35376ft 475kts
24-Oct-19 17:24 42.837958 -121.885355 174 35380ft 477kts
24-Oct-19 17:25 42.706948 -121.855004 174 35383ft 477kts
24-Oct-19 17:26 42.576000 -121.824899 174 35383ft 477kts
24-Oct-19 17:27 42.445262 -121.794962 174 35383ft 477kts
24-Oct-19 17:28 42.314513 -121.765112 174 35383ft 477kts
24-Oct-19 17:29 42.183204 -121.735636 175 35382ft 476kts
24-Oct-19 17:30 42.051981 -121.728319 183 35383ft 472kts
24-Oct-19 17:31 41.920685 -121.727674 183 35383ft 472kts
24-Oct-19 17:32 41.795038 -121.727027 183 35382ft 472kts
24-Oct-19 17:33 41.664176 -121.726399 183 35382ft 472kts
24-Oct-19 17:34 41.532830 -121.725784 183 35375ft 472kts
24-Oct-19 17:35 41.401791 -121.725170 183 35372ft 472kts
24-Oct-19 17:36 41.270742 -121.724557 183 35372ft 471kts
24-Oct-19 17:37 41.141267 -121.723967 183 35287ft 473kts
24-Oct-19 17:38 41.009360 -121.723451 182 35163ft 472kts
24-Oct-19 17:39 40.886923 -121.722818 181 35135ft 471kts
24-Oct-19 17:40 40.755950 -121.722109 181 34511ft 473kts
24-Oct-19 17:41 40.623739 -121.721490 181 31106ft 480kts
24-Oct-19 17:42 40.490656 -121.720753 180 28136ft 471kts
24-Oct-19 17:43 40.362597 -121.714458 175 25993ft 452kts
24-Oct-19 17:44 40.238826 -121.703403 175 24026ft 436kts
24-Oct-19 17:45 40.119914 -121.693127 175 22149ft 421kts
24-Oct-19 17:46 40.004964 -121.683154 174 20314ft 407kts
24-Oct-19 17:47 39.899136 -121.674190 174 18635ft 395kts
24-Oct-19 17:48 39.791089 -121.665081 174 16883ft 382kts
24-Oct-19 17:49 39.686787 -121.656191 174 15142ft 371kts
24-Oct-19 17:50 39.585341 -121.647514 174 13413ft 360kts
24-Oct-19 17:51 39.486766 -121.639192 174 11621ft 351kts
24-Oct-19 17:52 39.393047 -121.631393 174 10074ft 299kts
24-Oct-19 17:53 39.312584 -121.624492 174 7431ft 287kts
24-Oct-19 17:54 39.233174 -121.617782 175 4638ft 283kts
24-Oct-19 17:55 39.155410 -121.611373 176 3005ft 280kts
24-Oct-19 17:56 39.077522 -121.602692 173 3002ft 279kts
24-Oct-19 17:57 38.999986 -121.589252 168 3000ft 280kts
24-Oct-19 17:58 38.930557 -121.576236 181 2996ft 268kts
24-Oct-19 17:59 38.869127 -121.577558 180 2985ft 207kts
24-Oct-19 18:00 38.813543 -121.578402 181 2129ft 197kts
24-Oct-19 18:01 38.760050 -121.579232 181 1083ft 172kts
24-Oct-19 18:02 38.716229 -121.579940 181 259ft 153kts
24-Oct-19 18:03 38.690278 -121.582248 215 29ft 6kts

Navigation Log

Ident Type
Flight plan parsing failed, navigation log unavailable